Time;durP1;ratioP1;P1;durP2;ratioP2;P2;SDS_P1;SDS_P2;PMS_P1;PMS_P2;Temp;Humidity;BMP_temperature;BMP_pressure;BME280_temperature;BME280_humidity;BME280_pressure;Samples;Min_cycle;Max_cycle;Signal;HPM_P1;HPM_P2
2023/02/05 00:01:39;;;;;;;6.32;2.60;;;;;;;-0.69;100.00;103006.66;5180422;28;20064;-73
2023/02/05 00:04:09;;;;;;;5.45;2.63;;;;;;;-0.67;100.00;103015.34;5187801;28;20037;-75
2023/02/05 00:06:39;;;;;;;10.25;4.30;;;;;;;-0.69;100.00;103010.94;5186547;28;20029;-76
2023/02/05 00:09:10;;;;;;;6.65;3.45;;;;;;;-0.68;100.00;103005.88;5186730;28;20044;-73
2023/02/05 00:11:40;;;;;;;8.32;2.70;;;;;;;-0.64;100.00;103009.47;5186979;28;20025;-72
2023/02/05 00:14:11;;;;;;;5.38;2.50;;;;;;;-0.77;100.00;103001.97;5181881;28;20356;-72
2023/02/05 00:16:41;;;;;;;6.65;2.95;;;;;;;-0.75;100.00;103005.50;5185477;28;20018;-72
2023/02/05 00:19:11;;;;;;;6.68;3.20;;;;;;;-0.83;100.00;102987.19;5189757;28;20037;-75
2023/02/05 00:21:43;;;;;;;5.15;2.40;;;;;;;-0.67;100.00;102981.06;5183320;28;20479;-73
2023/02/05 00:24:13;;;;;;;6.07;2.70;;;;;;;-0.64;100.00;102976.09;5184944;28;20041;-74
2023/02/05 00:26:43;;;;;;;7.15;3.10;;;;;;;-0.80;100.00;102965.88;5175205;28;20018;-72
2023/02/05 00:29:14;;;;;;;6.78;3.00;;;;;;;-0.74;100.00;102971.34;5189073;28;20021;-74
2023/02/05 00:31:46;;;;;;;6.00;2.90;;;;;;;-0.73;100.00;102973.97;5189322;28;20032;-74
2023/02/05 00:34:16;;;;;;;7.25;2.75;;;;;;;-0.76;100.00;102978.94;5182089;28;20049;-74
2023/02/05 00:36:47;;;;;;;5.47;2.60;;;;;;;-0.77;100.00;102978.88;5184421;28;20452;-72
2023/02/05 00:39:17;;;;;;;4.50;2.55;;;;;;;-0.74;100.00;102971.34;5199187;28;20237;-73
2023/02/05 00:41:48;;;;;;;6.22;2.90;;;;;;;-0.54;100.00;102968.03;5188531;28;20527;-72
2023/02/05 00:44:18;;;;;;;6.38;3.17;;;;;;;-0.66;100.00;102970.00;5186682;28;20033;-73
2023/02/05 00:46:48;;;;;;;5.75;2.78;;;;;;;-0.66;100.00;102958.06;5184140;28;20068;-72
2023/02/05 00:49:19;;;;;;;9.98;4.00;;;;;;;-0.76;100.00;102952.41;5170928;28;20028;-73
2023/02/05 00:51:49;;;;;;;9.00;3.70;;;;;;;-0.70;100.00;102952.69;5181396;28;20071;-72
2023/02/05 00:54:19;;;;;;;7.95;3.45;;;;;;;-0.73;100.00;102952.56;5185659;28;20044;-74
2023/02/05 00:56:49;;;;;;;8.98;3.72;;;;;;;-0.76;100.00;102953.28;5186844;28;20054;-75
2023/02/05 00:59:20;;;;;;;6.78;3.08;;;;;;;-0.61;100.00;102935.16;5185924;28;20021;-75
2023/02/05 01:01:50;;;;;;;6.20;3.42;;;;;;;-0.70;100.00;102932.16;5193148;28;20022;-73
2023/02/05 01:04:21;;;;;;;7.50;3.40;;;;;;;-0.58;100.00;102937.88;5187488;28;20053;-75
2023/02/05 01:06:51;;;;;;;8.57;3.17;;;;;;;-0.72;100.00;102928.66;5189105;28;20491;-73
2023/02/05 01:09:21;;;;;;;5.55;2.60;;;;;;;-0.56;100.00;102931.13;5188423;28;20025;-73
2023/02/05 01:11:52;;;;;;;5.70;3.13;;;;;;;-0.46;100.00;102928.16;5191313;28;20075;-72
2023/02/05 01:14:22;;;;;;;8.02;3.20;;;;;;;-0.30;100.00;102920.34;5187485;28;20332;-73
2023/02/05 01:16:52;;;;;;;7.45;3.40;;;;;;;-0.43;100.00;102915.44;5185178;28;20087;-72
2023/02/05 01:19:22;;;;;;;8.88;3.20;;;;;;;-0.34;100.00;102919.34;5185523;28;20514;-72
2023/02/05 01:21:53;;;;;;;11.27;4.68;;;;;;;-0.43;100.00;102912.88;5182933;28;20507;-72
2023/02/05 01:24:24;;;;;;;7.32;3.22;;;;;;;-0.52;100.00;102899.63;5185589;28;20033;-74
2023/02/05 01:26:57;;;;;;;7.68;4.18;;;;;;;-0.52;100.00;102895.38;5181560;28;20372;-72
2023/02/05 01:29:27;;;;;;;9.80;4.05;;;;;;;-0.48;100.00;102879.31;5181537;28;20444;-76
2023/02/05 01:31:58;;;;;;;8.52;4.15;;;;;;;-0.27;100.00;102879.38;5181134;28;20029;-74
2023/02/05 01:34:28;;;;;;;10.10;3.83;;;;;;;-0.25;100.00;102867.50;5185030;28;20022;-73
2023/02/05 01:36:58;;;;;;;10.48;4.57;;;;;;;-0.29;100.00;102861.34;5186778;28;20483;-74
2023/02/05 01:39:29;;;;;;;6.60;3.60;;;;;;;-0.29;100.00;102857.88;5185484;28;20304;-73
2023/02/05 01:41:59;;;;;;;9.10;4.03;;;;;;;-0.28;100.00;102844.22;5190940;28;20034;-72
2023/02/05 01:44:30;;;;;;;6.70;3.17;;;;;;;-0.22;100.00;102844.53;5186112;28;20040;-72
2023/02/05 01:47:00;;;;;;;6.60;3.13;;;;;;;-0.16;100.00;102842.22;5188031;28;20565;-73
2023/02/05 01:49:35;;;;;;;5.25;2.95;;;;;;;-0.12;100.00;102845.00;5187240;28;20503;-72
2023/02/05 01:52:12;;;;;;;;;;;;;;;-0.12;100.00;102859.50;5183642;28;20559;-72
2023/02/05 01:54:45;;;;;;;6.22;3.10;;;;;;;-0.20;100.00;102855.75;5176544;28;19913;-72
2023/02/05 01:57:22;;;;;;;8.20;3.33;;;;;;;-0.28;100.00;102852.84;5178979;28;20028;-73
2023/02/05 01:59:53;;;;;;;9.43;3.90;;;;;;;-0.36;100.00;102848.16;5182749;28;20026;-73
2023/02/05 02:05:01;;;;;;;8.20;3.40;;;;;;;-0.43;100.00;102848.69;5157318;28;20152;-77
2023/02/05 02:07:32;;;;;;;7.68;4.05;;;;;;;-0.41;100.00;102852.22;5164639;28;20317;-75
2023/02/05 02:10:03;;;;;;;8.70;3.63;;;;;;;-0.43;100.00;102851.25;5163769;28;20054;-77
2023/02/05 02:12:38;;;;;;;7.75;3.78;;;;;;;-0.46;100.00;102845.97;5166262;28;20034;-76
2023/02/05 02:15:14;;;;;;;7.60;3.30;;;;;;;-0.53;100.00;102842.25;5168129;28;20117;-76
2023/02/05 02:17:48;;;;;;;7.82;3.83;;;;;;;-0.56;100.00;102836.13;5154299;28;20030;-77
2023/02/05 02:20:27;;;;;;;6.65;3.80;;;;;;;-0.61;100.00;102840.16;5166505;28;20030;-76
2023/02/05 02:23:12;;;;;;;6.65;3.60;;;;;;;-0.59;100.00;102825.72;5166161;28;20018;-76
2023/02/05 02:26:01;;;;;;;9.05;3.70;;;;;;;-0.62;100.00;102818.75;5167917;28;20027;-76
2023/02/05 02:28:44;;;;;;;7.53;4.10;;;;;;;-0.58;100.00;102814.66;5163303;28;20038;-77
2023/02/05 02:31:27;;;;;;;8.73;3.97;;;;;;;-0.69;100.00;102811.56;5169625;28;20022;-76
2023/02/05 02:34:06;;;;;;;9.40;3.83;;;;;;;-0.63;100.00;102808.41;5167958;28;20022;-76
2023/02/05 02:36:55;;;;;;;8.60;3.92;;;;;;;-0.63;100.00;102813.53;5167475;28;20034;-76
2023/02/05 02:39:35;;;;;;;10.68;3.97;;;;;;;-0.72;100.00;102801.16;5169197;28;20108;-77
2023/02/05 02:42:22;;;;;;;8.93;4.38;;;;;;;-0.67;100.00;102809.09;5169083;28;20113;-76
2023/02/05 02:44:59;;;;;;;8.75;4.10;;;;;;;-0.69;100.00;102800.44;5162500;28;20165;-76
2023/02/05 02:47:39;;;;;;;7.65;4.38;;;;;;;-0.59;100.00;102794.91;5168544;28;20311;-76
2023/02/05 02:50:22;;;;;;;9.98;4.53;;;;;;;-0.60;100.00;102800.84;5165715;28;20045;-76
2023/02/05 02:52:54;;;;;;;9.20;4.03;;;;;;;-0.66;100.00;102793.75;5167419;28;20030;-77
2023/02/05 02:55:25;;;;;;;5.72;3.38;;;;;;;-0.67;100.00;102786.88;5164811;28;20182;-76
2023/02/05 02:57:56;;;;;;;8.60;3.70;;;;;;;-0.75;100.00;102789.91;5171372;28;20026;-76
2023/02/05 03:00:28;;;;;;;6.95;3.85;;;;;;;-0.74;100.00;102787.38;5159919;28;20026;-76
2023/02/05 03:03:04;;;;;;;7.20;3.67;;;;;;;-0.79;100.00;102780.28;5168262;28;20026;-76
2023/02/05 03:05:35;;;;;;;6.97;3.63;;;;;;;-0.83;100.00;102787.00;5162436;28;20069;-76
2023/02/05 03:08:14;;;;;;;9.55;4.35;;;;;;;-0.86;100.00;102775.69;5168345;28;20033;-76
2023/02/05 03:10:51;;;;;;;7.85;3.80;;;;;;;-0.85;100.00;102778.34;5169452;28;20399;-77
2023/02/05 03:13:21;;;;;;;8.73;3.92;;;;;;;-0.78;100.00;102774.34;5167050;28;20075;-76
2023/02/05 03:15:52;;;;;;;9.32;4.03;;;;;;;-0.81;100.00;102779.34;5167612;28;20100;-75
2023/02/05 03:18:23;;;;;;;9.85;4.13;;;;;;;-0.86;100.00;102783.41;5164344;28;20030;-76
2023/02/05 03:21:01;;;;;;;7.57;3.90;;;;;;;-0.85;100.00;102777.44;5160059;28;20053;-75
2023/02/05 03:23:31;;;;;;;8.30;3.55;;;;;;;-0.85;100.00;102782.59;5154487;28;20384;-75
2023/02/05 03:26:01;;;;;;;8.68;3.78;;;;;;;-0.89;100.00;102780.69;5167060;28;20030;-75
2023/02/05 03:28:32;;;;;;;8.18;4.00;;;;;;;-0.91;100.00;102787.44;5160318;28;20033;-75
2023/02/05 03:31:17;;;;;;;12.50;4.50;;;;;;;-0.87;100.00;102779.06;5158367;28;20432;-75
2023/02/05 03:33:50;;;;;;;8.90;3.83;;;;;;;-0.89;100.00;102771.28;5160358;28;20026;-76
2023/02/05 03:36:53;;;;;;;7.82;3.85;;;;;;;-0.94;100.00;102777.91;5156577;28;20029;-76
2023/02/05 03:39:44;;;;;;;8.95;3.60;;;;;;;-0.90;100.00;102784.06;5165255;28;20028;-77
2023/02/05 03:42:17;;;;;;;10.93;3.97;;;;;;;-0.86;100.00;102776.56;5165449;28;20101;-75
2023/02/05 03:45:25;;;;;;;8.43;3.70;;;;;;;-0.93;100.00;102779.66;5167956;28;20036;-77
2023/02/05 03:48:26;;;;;;;7.15;3.40;;;;;;;-0.86;100.00;102786.81;5164018;28;20038;-76
2023/02/05 03:51:21;;;;;;;9.30;3.80;;;;;;;-0.91;100.00;102782.31;5160552;28;20125;-76
2023/02/05 03:54:24;;;;;;;8.63;3.72;;;;;;;-0.80;100.00;102770.84;5160399;28;20097;-75
2023/02/05 03:57:01;;;;;;;7.55;3.72;;;;;;;-0.84;100.00;102785.22;5159940;28;20347;-76
2023/02/05 03:59:34;;;;;;;9.23;4.00;;;;;;;-0.86;100.00;102786.81;5157347;28;20022;-76
2023/02/05 04:02:05;;;;;;;9.57;4.07;;;;;;;-0.77;100.00;102776.09;5163361;28;20097;-74
2023/02/05 04:04:35;;;;;;;8.88;3.58;;;;;;;-0.77;100.00;102769.28;5164518;28;20038;-76
2023/02/05 04:07:05;;;;;;;10.63;4.07;;;;;;;-0.89;100.00;102765.31;5166629;28;20066;-76
2023/02/05 04:09:36;;;;;;;7.57;3.92;;;;;;;-0.83;100.00;102765.56;5160367;28;20036;-75
2023/02/05 04:12:06;;;;;;;8.68;3.95;;;;;;;-0.77;100.00;102771.84;5162276;28;20038;-76
2023/02/05 04:14:36;;;;;;;8.05;4.05;;;;;;;-0.86;100.00;102775.69;5167015;28;20025;-74
2023/02/05 04:17:10;;;;;;;8.07;3.33;;;;;;;-0.77;100.00;102776.09;5171143;28;20028;-75
2023/02/05 04:19:40;;;;;;;12.85;4.40;;;;;;;-0.75;100.00;102777.06;5167191;28;20034;-77
2023/02/05 04:22:10;;;;;;;8.38;3.90;;;;;;;-0.80;100.00;102776.84;5160306;28;20387;-76
2023/02/05 04:24:41;;;;;;;8.45;3.58;;;;;;;-0.75;100.00;102779.63;5163238;28;20040;-76
2023/02/05 04:27:11;;;;;;;9.50;4.05;;;;;;;-0.72;100.00;102772.06;5163675;28;20038;-76
2023/02/05 04:29:41;;;;;;;5.88;3.08;;;;;;;-0.71;100.00;102745.59;5160912;28;20031;-76
2023/02/05 04:32:12;;;;;;;7.22;3.60;;;;;;;-0.70;100.00;102742.22;5163153;28;20030;-75
2023/02/05 04:34:42;;;;;;;10.27;3.30;;;;;;;-0.68;100.00;102745.72;5157074;28;20018;-75
2023/02/05 04:37:12;;;;;;;9.23;3.47;;;;;;;-0.70;100.00;102737.06;5167434;28;20050;-74
2023/02/05 04:39:42;;;;;;;7.63;3.63;;;;;;;-0.67;100.00;102750.03;5165294;28;20391;-76
2023/02/05 04:42:13;;;;;;;5.90;3.03;;;;;;;-0.68;100.00;102761.13;5169704;28;20038;-76
2023/02/05 04:44:43;;;;;;;7.38;3.55;;;;;;;-0.64;100.00;102763.00;5168216;28;20041;-76
2023/02/05 04:47:13;;;;;;;7.38;3.67;;;;;;;-0.67;100.00;102758.63;5162393;28;20109;-75
2023/02/05 04:49:44;;;;;;;6.85;3.35;;;;;;;-0.66;100.00;102756.94;5157978;28;20018;-76
2023/02/05 04:52:14;;;;;;;6.57;3.55;;;;;;;-0.71;100.00;102766.13;5160904;28;20142;-76
2023/02/05 04:54:44;;;;;;;9.57;3.90;;;;;;;-0.69;100.00;102769.63;5159806;28;20030;-76
2023/02/05 04:57:15;;;;;;;7.63;3.70;;;;;;;-0.64;100.00;102758.75;5166354;28;20097;-77
2023/02/05 04:59:45;;;;;;;8.45;3.55;;;;;;;-0.62;100.00;102753.69;5166492;28;20030;-76
2023/02/05 05:02:16;;;;;;;6.88;3.55;;;;;;;-0.58;100.00;102756.47;5164443;28;20030;-76
2023/02/05 05:04:46;;;;;;;6.93;3.30;;;;;;;-0.56;100.00;102752.25;5163516;28;20523;-74
2023/02/05 05:07:16;;;;;;;7.65;3.20;;;;;;;-0.56;100.00;102746.28;5161171;28;20053;-75
2023/02/05 05:09:46;;;;;;;7.35;3.53;;;;;;;-0.53;100.00;102747.25;5170051;28;20030;-75
2023/02/05 05:12:17;;;;;;;7.68;3.70;;;;;;;-0.50;100.00;102736.25;5168259;28;20095;-76
2023/02/05 05:14:47;;;;;;;7.85;3.92;;;;;;;-0.50;100.00;102728.53;5165032;28;20101;-75
2023/02/05 05:17:17;;;;;;;7.80;3.40;;;;;;;-0.48;100.00;102722.69;5171167;28;20033;-75
2023/02/05 05:19:48;;;;;;;7.13;3.50;;;;;;;-0.43;100.00;102728.00;5169033;28;20258;-76
2023/02/05 05:22:18;;;;;;;7.20;3.40;;;;;;;-0.38;100.00;102721.38;5165342;28;20038;-75
2023/02/05 05:24:48;;;;;;;9.63;3.53;;;;;;;-0.34;100.00;102726.72;5160465;28;20408;-72
2023/02/05 05:27:19;;;;;;;5.38;2.97;;;;;;;-0.23;100.00;102711.75;5171794;28;20034;-75
2023/02/05 05:29:49;;;;;;;9.23;3.40;;;;;;;-0.25;100.00;102703.13;5167335;28;20088;-75
2023/02/05 05:32:19;;;;;;;8.63;2.97;;;;;;;-0.09;100.00;102708.03;5171501;28;20029;-76
2023/02/05 05:34:50;;;;;;;7.20;2.72;;;;;;;-0.15;100.00;102712.94;5166235;28;20472;-75
2023/02/05 05:37:20;;;;;;;6.32;3.10;;;;;;;-0.05;100.00;102707.38;5164473;28;20025;-76
2023/02/05 05:45:28;;;;;;;5.93;2.88;;;;;;;-0.14;100.00;102696.69;5165633;28;20428;-75
2023/02/05 05:47:58;;;;;;;7.22;3.00;;;;;;;-0.02;100.00;102698.06;5173994;28;20030;-75
2023/02/05 05:50:29;;;;;;;5.25;2.65;;;;;;;-0.04;100.00;102693.72;5168073;28;20032;-76
2023/02/05 05:52:59;;;;;;;6.05;2.80;;;;;;;-0.06;100.00;102697.91;5166191;28;20077;-76
2023/02/05 05:55:29;;;;;;;7.70;3.25;;;;;;;0.01;100.00;102695.66;5169703;28;20032;-75
2023/02/05 05:57:59;;;;;;;7.53;2.95;;;;;;;0.09;100.00;102701.97;5165107;28;20032;-76
2023/02/05 06:00:30;;;;;;;9.35;3.00;;;;;;;0.03;100.00;102687.16;5169140;28;20021;-76
2023/02/05 06:03:00;;;;;;;6.30;2.72;;;;;;;0.10;100.00;102694.34;5165337;28;20030;-77
2023/02/05 06:05:32;;;;;;;7.53;2.42;;;;;;;0.04;100.00;102682.94;5168634;28;20030;-77
2023/02/05 06:08:03;;;;;;;7.82;2.70;;;;;;;0.17;100.00;102691.19;5165019;28;20022;-76
2023/02/05 06:10:33;;;;;;;7.68;3.00;;;;;;;0.11;100.00;102674.63;5166072;28;20026;-76
2023/02/05 06:13:04;;;;;;;6.82;2.72;;;;;;;0.09;100.00;102672.03;5165610;28;20558;-76
2023/02/05 06:15:34;;;;;;;6.75;3.10;;;;;;;0.06;100.00;102671.88;5169952;28;20113;-76
2023/02/05 06:18:04;;;;;;;5.65;2.78;;;;;;;0.07;100.00;102668.47;5170294;28;20057;-76
2023/02/05 06:20:35;;;;;;;5.20;2.35;;;;;;;0.14;100.00;102659.31;5174052;28;20036;-76
2023/02/05 06:23:05;;;;;;;6.70;2.50;;;;;;;0.24;100.00;102646.88;5161388;28;20042;-76
2023/02/05 06:25:35;;;;;;;6.45;2.92;;;;;;;0.24;100.00;102638.31;5167462;28;20503;-75
2023/02/05 06:28:06;;;;;;;6.85;2.63;;;;;;;0.21;100.00;102640.78;5170045;28;20061;-76
2023/02/05 06:30:36;;;;;;;5.55;2.38;;;;;;;0.18;100.00;102646.66;5172690;28;20026;-75
2023/02/05 06:33:06;;;;;;;4.32;2.38;;;;;;;0.15;100.00;102640.50;5167928;28;21328;-76
2023/02/05 06:35:38;;;;;;;5.03;2.50;;;;;;;0.21;100.00;102641.63;5163424;28;20026;-76
2023/02/05 06:38:08;;;;;;;5.20;2.55;;;;;;;0.25;100.00;102635.78;5165726;28;20053;-76
2023/02/05 06:40:38;;;;;;;6.68;2.40;;;;;;;0.25;100.00;102627.22;5171689;28;20065;-76
2023/02/05 06:43:09;;;;;;;7.45;2.72;;;;;;;0.23;100.00;102628.84;5163997;28;20028;-75
2023/02/05 06:45:39;;;;;;;6.85;2.70;;;;;;;0.30;100.00;102636.88;5165812;28;20022;-76
2023/02/05 06:48:09;;;;;;;6.80;2.97;;;;;;;0.35;100.00;102632.75;5176584;28;20040;-77
2023/02/05 06:50:40;;;;;;;5.95;2.70;;;;;;;0.36;100.00;102639.66;5162601;28;20049;-75
2023/02/05 06:53:10;;;;;;;5.40;2.58;;;;;;;0.30;100.00;102636.88;5162700;28;20121;-76
2023/02/05 06:55:40;;;;;;;5.03;2.70;;;;;;;0.33;100.00;102631.84;5163926;28;20053;-76
2023/02/05 06:58:10;;;;;;;7.10;2.80;;;;;;;0.32;100.00;102637.78;5171334;28;20029;-76
2023/02/05 07:00:41;;;;;;;7.07;3.15;;;;;;;0.30;100.00;102635.97;5168872;28;20022;-76
2023/02/05 07:03:12;;;;;;;8.38;3.05;;;;;;;0.26;100.00;102640.16;5164078;28;20423;-73
2023/02/05 07:05:42;;;;;;;6.57;2.88;;;;;;;0.26;100.00;102650.44;5167716;28;20065;-75
2023/02/05 07:08:12;;;;;;;5.72;2.72;;;;;;;0.30;100.00;102647.16;5168617;28;20499;-75
2023/02/05 07:10:42;;;;;;;6.75;2.90;;;;;;;0.31;100.00;102650.56;5172577;28;20026;-76
2023/02/05 07:13:13;;;;;;;7.57;2.90;;;;;;;0.46;100.00;102646.03;5169065;28;20042;-76
2023/02/05 07:15:43;;;;;;;4.78;2.60;;;;;;;0.44;100.00;102638.28;5166784;28;20045;-76
2023/02/05 07:18:14;;;;;;;7.85;3.00;;;;;;;0.39;100.00;102636.34;5170103;28;20057;-76
2023/02/05 07:20:44;;;;;;;5.70;3.20;;;;;;;0.38;100.00;102622.59;5165901;28;20384;-75
2023/02/05 07:23:14;;;;;;;6.47;3.40;;;;;;;0.32;100.00;102612.09;5163423;28;20022;-75
2023/02/05 07:25:45;;;;;;;6.45;2.63;;;;;;;0.35;100.00;102603.63;5168614;28;20038;-75
2023/02/05 07:28:15;;;;;;;5.93;3.15;;;;;;;0.40;100.00;102613.22;5167349;28;20262;-75
2023/02/05 07:30:46;;;;;;;7.72;3.17;;;;;;;0.39;100.00;102601.19;5162014;28;20030;-75
2023/02/05 07:33:16;;;;;;;7.38;3.03;;;;;;;0.41;100.00;102594.41;5162150;28;20026;-75
2023/02/05 07:35:47;;;;;;;6.32;3.20;;;;;;;0.52;100.00;102592.28;5167719;28;20072;-76
2023/02/05 07:38:17;;;;;;;6.50;2.83;;;;;;;0.47;100.00;102594.66;5170947;28;20026;-76
2023/02/05 07:40:47;;;;;;;6.57;2.92;;;;;;;0.51;100.00;102591.38;5171094;28;20030;-76
2023/02/05 07:43:18;;;;;;;7.97;3.60;;;;;;;0.56;100.00;102591.56;5159274;28;20117;-76
2023/02/05 07:45:55;;;;;;;8.73;3.55;;;;;;;0.56;100.00;102583.84;5160494;28;20121;-76
2023/02/05 07:48:26;;;;;;;6.05;3.13;;;;;;;0.61;100.00;102595.16;5158511;28;20087;-76
2023/02/05 07:50:56;;;;;;;6.22;3.55;;;;;;;0.65;100.00;102602.16;5157104;28;20500;-76
2023/02/05 07:53:26;;;;;;;8.38;3.53;;;;;;;0.67;100.00;102608.22;5165010;28;20101;-76
2023/02/05 07:56:01;;;;;;;6.78;3.60;;;;;;;0.66;100.00;102609.06;5161693;28;20467;-76
2023/02/05 07:58:32;;;;;;;6.57;3.55;;;;;;;0.69;100.00;102604.91;5157228;28;20061;-73
2023/02/05 08:01:03;;;;;;;9.10;3.78;;;;;;;0.64;100.00;102603.88;5160519;28;20648;-76
2023/02/05 08:03:34;;;;;;;10.13;3.67;;;;;;;0.72;100.00;102611.88;5180159;23;20513;-70
2023/02/05 08:06:07;;;;;;;6.85;3.63;;;;;;;0.74;100.00;102611.09;5178741;28;20041;-71
2023/02/05 08:08:37;;;;;;;6.82;3.88;;;;;;;0.75;100.00;102609.41;5177691;28;20030;-71
2023/02/05 08:11:13;;;;;;;9.45;4.07;;;;;;;0.75;100.00;102599.13;5181144;28;20037;-71
2023/02/05 08:13:44;;;;;;;8.55;3.88;;;;;;;0.89;100.00;102595.34;5181475;28;20112;-71
2023/02/05 08:16:15;;;;;;;7.53;4.18;;;;;;;0.86;100.00;102592.66;5187277;28;20034;-70
2023/02/05 08:18:48;;;;;;;8.75;3.80;;;;;;;0.87;100.00;102591.84;5182932;28;20414;-71
2023/02/05 08:21:20;;;;;;;7.55;3.97;;;;;;;0.97;100.00;102589.66;5181681;28;20459;-71
2023/02/05 08:23:50;;;;;;;9.38;4.32;;;;;;;1.06;100.00;102595.09;5187335;28;20072;-71
2023/02/05 08:26:21;;;;;;;6.53;3.70;;;;;;;1.07;100.00;102586.56;5191375;28;20459;-71
2023/02/05 08:28:51;;;;;;;7.75;4.05;;;;;;;1.18;100.00;102589.50;5194244;28;20227;-71
2023/02/05 08:31:21;;;;;;;6.57;3.90;;;;;;;1.18;100.00;102585.25;5191932;28;20028;-71
2023/02/05 08:33:53;;;;;;;9.55;3.92;;;;;;;1.25;100.00;102597.47;5179966;28;20037;-71
2023/02/05 08:36:24;;;;;;;16.23;7.13;;;;;;;1.16;100.00;102597.19;5187630;28;20064;-71
2023/02/05 08:38:54;;;;;;;7.60;4.10;;;;;;;1.29;100.00;102593.31;5195086;28;20057;-71
2023/02/05 08:41:24;;;;;;;13.55;6.30;;;;;;;1.32;100.00;102601.16;5195229;28;20021;-70
2023/02/05 08:43:55;;;;;;;11.68;4.93;;;;;;;1.36;100.00;102601.31;5185381;28;20033;-71
2023/02/05 08:46:25;;;;;;;18.38;7.55;;;;;;;1.36;100.00;102614.19;5198217;28;20026;-71
2023/02/05 08:48:55;;;;;;;10.13;4.30;;;;;;;1.47;100.00;102619.69;5184982;28;20036;-71
2023/02/05 08:51:26;;;;;;;11.45;4.03;;;;;;;1.48;100.00;102627.50;5187254;28;20510;-71
2023/02/05 08:53:56;;;;;;;7.35;3.75;;;;;;;1.43;100.00;102631.59;5183408;28;20025;-70
2023/02/05 08:56:27;;;;;;;8.88;4.30;;;;;;;1.36;100.00;102621.91;5187044;28;20113;-70
2023/02/05 08:58:57;;;;;;;7.32;4.10;;;;;;;1.34;100.00;102614.94;5175750;28;20054;-71
2023/02/05 09:01:27;;;;;;;7.80;4.10;;;;;;;1.30;100.00;102614.00;5179801;28;20107;-71
2023/02/05 09:03:57;;;;;;;8.10;4.47;;;;;;;1.40;100.00;102613.47;5184027;28;20299;-71
2023/02/05 09:06:28;;;;;;;10.13;4.35;;;;;;;1.36;100.00;102616.75;5180317;28;20100;-71
2023/02/05 09:08:59;;;;;;;9.73;4.50;;;;;;;1.42;100.00;102613.53;5194851;28;20037;-71
2023/02/05 09:11:30;;;;;;;9.27;4.47;;;;;;;1.46;100.00;102608.53;5187270;28;20017;-71
2023/02/05 09:14:00;;;;;;;7.63;4.68;;;;;;;1.65;100.00;102605.72;5186035;28;20029;-71
2023/02/05 09:16:31;;;;;;;14.23;4.90;;;;;;;1.69;100.00;102591.22;5177003;28;20037;-71
2023/02/05 09:19:01;;;;;;;7.75;4.20;;;;;;;1.74;100.00;102581.97;5185864;28;20112;-71
2023/02/05 09:21:31;;;;;;;9.25;4.10;;;;;;;1.78;100.00;102587.25;5190313;28;20079;-71
2023/02/05 09:24:02;;;;;;;9.48;4.75;;;;;;;1.90;100.00;102578.22;5184827;28;20030;-71
2023/02/05 09:26:32;;;;;;;10.18;4.45;;;;;;;1.90;100.00;102567.00;5175732;28;20025;-70
2023/02/05 09:29:03;;;;;;;6.97;3.83;;;;;;;1.85;100.00;102569.44;5184879;28;20025;-71
2023/02/05 09:31:33;;;;;;;9.77;4.45;;;;;;;1.85;100.00;102568.59;5184381;28;20609;-71
2023/02/05 09:34:03;;;;;;;8.55;3.97;;;;;;;1.88;100.00;102585.03;5179517;28;20422;-70
2023/02/05 09:36:33;;;;;;;7.03;4.07;;;;;;;2.03;100.00;102584.63;5178031;28;20032;-70
2023/02/05 09:39:04;;;;;;;7.65;4.00;;;;;;;2.14;100.00;102588.41;5188111;28;20140;-70
2023/02/05 09:41:59;;;;;;;8.55;3.83;;;;;;;2.27;100.00;102604.31;5191267;28;20030;-70
2023/02/05 09:44:44;;;;;;;6.03;3.95;;;;;;;2.35;100.00;102595.06;5196131;28;20064;-71
2023/02/05 09:47:31;;;;;;;7.63;3.58;;;;;;;2.38;100.00;102602.94;5187021;28;20034;-71
2023/02/05 09:50:02;;;;;;;8.13;4.15;;;;;;;2.32;100.00;102607.03;5182708;28;20116;-71
2023/02/05 09:52:36;;;;;;;7.57;3.88;;;;;;;2.44;99.82;102607.38;5182014;28;20124;-70
2023/02/05 09:55:19;;;;;;;6.97;3.70;;;;;;;2.70;100.00;102603.84;5180512;28;20041;-71
2023/02/05 09:57:54;;;;;;;9.30;3.92;;;;;;;2.67;100.00;102606.34;5195500;28;20415;-71
2023/02/05 10:00:37;;;;;;;6.70;3.45;;;;;;;2.62;99.10;102610.47;5194181;28;20117;-71
2023/02/05 10:03:28;;;;;;;8.68;4.35;;;;;;;2.67;99.82;102614.09;5191852;28;20033;-72
2023/02/05 10:06:10;;;;;;;6.93;3.75;;;;;;;2.57;99.25;102606.91;5195464;28;20108;-71
2023/02/05 10:09:06;;;;;;;7.63;3.95;;;;;;;2.52;99.31;102603.31;5184073;28;20439;-71
2023/02/05 10:11:49;;;;;;;7.80;3.58;;;;;;;2.57;100.00;102607.78;5181853;28;20021;-71
2023/02/05 10:14:45;;;;;;;6.18;3.50;;;;;;;2.59;99.72;102600.97;5191176;28;20067;-71
2023/02/05 10:17:45;;;;;;;8.27;3.80;;;;;;;2.74;100.00;102600.53;5180877;28;20510;-71
2023/02/05 10:20:37;;;;;;;9.20;4.55;;;;;;;2.82;100.00;102584.41;5182427;28;20091;-71
2023/02/05 10:23:14;;;;;;;11.10;3.70;;;;;;;2.88;100.00;102583.72;5186197;28;20037;-71
2023/02/05 10:25:59;;;;;;;6.65;3.90;;;;;;;2.90;100.00;102575.19;5184100;28;20034;-71
2023/02/05 10:29:02;;;;;;;6.97;4.10;;;;;;;2.92;100.00;102573.50;5184949;28;20022;-71
2023/02/05 10:31:37;;;;;;;7.10;4.25;;;;;;;3.00;100.00;102569.41;5184950;28;20079;-71
2023/02/05 10:34:32;;;;;;;7.80;3.95;;;;;;;3.06;100.00;102579.03;5185161;28;20522;-71
2023/02/05 10:37:10;;;;;;;9.30;4.03;;;;;;;3.10;100.00;102579.16;5198791;28;20041;-71
2023/02/05 10:39:41;;;;;;;11.82;4.03;;;;;;;2.90;100.00;102582.03;5193281;28;20025;-71
2023/02/05 10:42:32;;;;;;;8.50;4.30;;;;;;;2.92;100.00;102575.22;5187286;28;20030;-71
2023/02/05 10:45:15;;;;;;;7.93;4.00;;;;;;;2.94;100.00;102578.69;5182949;28;20044;-71
2023/02/05 10:48:01;;;;;;;10.27;4.30;;;;;;;2.92;100.00;102572.63;5181644;28;20038;-72
2023/02/05 10:50:50;;;;;;;6.63;3.83;;;;;;;2.93;100.00;102570.09;5180975;28;20029;-71
2023/02/05 10:53:23;;;;;;;7.45;4.15;;;;;;;3.11;100.00;102569.69;5187594;28;20091;-71
2023/02/05 10:55:55;;;;;;;10.45;3.90;;;;;;;3.24;100.00;102575.25;5189266;28;20018;-71
2023/02/05 10:58:37;;;;;;;9.98;4.22;;;;;;;3.29;99.56;102583.09;5185204;28;20511;-71
2023/02/05 11:01:19;;;;;;;9.70;4.63;;;;;;;3.28;97.87;102583.94;5175089;28;20042;-72
2023/02/05 11:04:13;;;;;;;11.43;4.47;;;;;;;3.29;99.17;102588.25;5189497;28;20037;-72
2023/02/05 11:06:49;;;;;;;10.00;4.25;;;;;;;3.32;99.46;102578.00;5185694;28;20044;-71
2023/02/05 11:09:25;;;;;;;9.38;4.43;;;;;;;3.29;98.58;102599.47;5182648;28;20030;-72
2023/02/05 11:11:58;;;;;;;7.55;3.88;;;;;;;3.39;99.63;102587.69;5197013;28;20115;-72
2023/02/05 11:14:37;;;;;;;8.38;3.90;;;;;;;3.38;98.92;102594.53;5198116;28;20713;-71
2023/02/05 11:17:13;;;;;;;9.70;3.97;;;;;;;3.34;99.29;102579.78;5184113;28;20142;-71
2023/02/05 11:20:01;;;;;;;9.77;3.80;;;;;;;3.25;98.53;102576.09;5175950;28;20040;-71
2023/02/05 11:22:34;;;;;;;9.38;3.90;;;;;;;3.18;98.92;102582.81;5181800;28;20371;-71
2023/02/05 11:25:21;;;;;;;9.35;4.30;;;;;;;3.25;99.67;102586.44;5192177;28;20557;-72
2023/02/05 11:27:56;;;;;;;8.10;3.97;;;;;;;3.22;98.23;102594.13;5176940;28;20267;-72
2023/02/05 11:30:34;;;;;;;9.15;4.28;;;;;;;3.17;98.11;102593.13;5177110;28;20108;-71
2023/02/05 11:33:24;;;;;;;8.18;4.22;;;;;;;3.24;98.53;102606.25;5176922;28;20353;-71
2023/02/05 11:36:06;;;;;;;6.63;3.58;;;;;;;3.29;98.51;102604.66;5178001;28;20022;-72
2023/02/05 11:38:47;;;;;;;8.63;3.92;;;;;;;3.28;98.01;102602.00;5183401;28;20512;-72
2023/02/05 11:41:29;;;;;;;8.45;4.40;;;;;;;3.23;99.76;102598.44;5178526;28;20048;-72
2023/02/05 11:44:02;;;;;;;9.60;4.65;;;;;;;3.19;99.63;102599.22;5174011;28;20061;-71
2023/02/05 11:46:42;;;;;;;8.90;4.07;;;;;;;3.22;98.95;102599.28;5180428;28;20026;-71
2023/02/05 11:49:20;;;;;;;7.97;4.18;;;;;;;3.19;97.52;102596.63;5176555;28;20140;-72
2023/02/05 11:51:54;;;;;;;7.20;3.80;;;;;;;3.22;97.51;102607.88;5176188;28;20086;-72
2023/02/05 11:54:31;;;;;;;8.20;3.92;;;;;;;3.40;98.65;102607.50;5186099;28;20072;-72
2023/02/05 11:57:06;;;;;;;10.32;4.15;;;;;;;3.47;98.08;102607.72;5177396;28;20034;-72
2023/02/05 11:59:38;;;;;;;6.70;3.90;;;;;;;3.65;98.95;102615.91;5186300;28;20642;-72
2023/02/05 12:02:32;;;;;;;7.95;4.07;;;;;;;3.56;97.07;102617.41;5177510;28;20042;-72